createdAt,value
2023-06-03T00:04:49.205Z,98107.91
2023-06-03T00:09:53.969Z,98092.59
2023-06-03T00:14:57.382Z,98075.66
2023-06-03T00:20:07.999Z,98091.22
2023-06-03T00:25:13.251Z,98094.84
2023-06-03T00:30:16.809Z,98099.94
2023-06-03T00:35:21.611Z,97839.50
2023-06-03T00:40:26.419Z,98099.50
2023-06-03T00:45:29.880Z,98093.19
2023-06-03T00:50:34.159Z,98086.84
2023-06-03T00:55:39.528Z,98079.44
2023-06-03T01:00:42.993Z,98082.00
2023-06-03T01:05:47.661Z,98002.22
2023-06-03T01:11:02.781Z,98075.50
2023-06-03T01:16:08.434Z,98029.13
2023-06-03T01:21:13.673Z,98081.72
2023-06-03T01:26:20.271Z,98080.28
2023-06-03T01:31:23.999Z,98077.31
2023-06-03T01:36:27.399Z,98079.28
2023-06-03T01:41:33.372Z,97986.50
2023-06-03T01:46:38.126Z,98083.66
2023-06-03T01:51:41.627Z,98079.25
2023-06-03T01:56:46.854Z,98016.19
2023-06-03T02:01:51.483Z,97916.06
2023-06-03T02:06:56.737Z,98079.28
2023-06-03T02:12:02.485Z,98078.66
2023-06-03T02:17:06.419Z,98078.16
2023-06-03T02:22:09.901Z,98066.00
2023-06-03T02:27:15.639Z,98069.47
2023-06-03T02:32:19.476Z,98074.31
2023-06-03T02:37:23.906Z,97999.50
2023-06-03T02:42:28.701Z,98072.16
2023-06-03T02:47:32.958Z,98027.13
2023-06-03T02:52:36.508Z,98080.84
2023-06-03T02:57:42.870Z,98060.72
2023-06-03T03:02:46.349Z,98083.69
2023-06-03T03:07:49.844Z,98085.16
2023-06-03T03:12:55.151Z,98088.91
2023-06-03T03:17:59.762Z,98035.38
2023-06-03T03:23:04.638Z,98094.53
2023-06-03T03:28:09.564Z,98106.19
2023-06-03T03:33:16.315Z,97795.69
2023-06-03T03:38:20.880Z,98093.41
2023-06-03T03:43:26.423Z,98093.41
2023-06-03T03:48:32.371Z,98053.84
2023-06-03T03:53:38.557Z,98098.47
2023-06-03T03:58:49.849Z,98059.25
2023-06-03T04:03:59.316Z,98096.47
2023-06-03T04:09:03.982Z,98116.56
2023-06-03T04:14:11.658Z,98103.88
2023-06-03T04:19:19.975Z,98059.09
2023-06-03T04:24:24.001Z,97856.13
2023-06-03T04:29:28.802Z,98084.53
2023-06-03T04:34:32.592Z,98123.19
2023-06-03T04:39:39.326Z,98125.44
2023-06-03T04:44:44.434Z,98118.56
2023-06-03T04:49:49.374Z,98126.66
2023-06-03T04:54:53.029Z,98120.81
2023-06-03T05:00:06.613Z,98121.00
2023-06-03T05:05:11.259Z,98116.66
2023-06-03T05:10:15.827Z,98115.16
2023-06-03T05:15:21.413Z,98016.81
2023-06-03T05:20:26.036Z,98108.63
2023-06-03T05:25:29.970Z,98127.25
2023-06-03T05:30:35.161Z,98074.56
2023-06-03T05:35:39.589Z,98105.13
2023-06-03T05:40:42.958Z,98060.06
2023-06-03T05:45:49.268Z,98123.63
2023-06-03T05:50:54.281Z,98106.06
2023-06-03T05:55:59.705Z,98120.09
2023-06-03T06:01:06.488Z,98108.69
2023-06-03T06:06:10.120Z,98104.44
2023-06-03T06:11:15.112Z,98105.91
2023-06-03T06:16:20.199Z,98112.38
2023-06-03T06:21:23.666Z,98042.16
2023-06-03T06:26:27.743Z,98083.75
2023-06-03T06:31:35.329Z,98105.50
2023-06-03T06:36:50.529Z,98078.88
2023-06-03T06:42:08.847Z,98050.66
2023-06-03T06:47:14.584Z,98102.41
2023-06-03T06:52:20.236Z,98085.56
2023-06-03T06:57:26.185Z,98115.63
2023-06-03T07:02:32.134Z,98107.13
2023-06-03T07:07:36.023Z,98103.91
2023-06-03T07:12:40.113Z,98102.59
2023-06-03T07:17:50.521Z,98104.44
2023-06-03T07:22:54.246Z,98049.28
2023-06-03T07:27:57.806Z,98119.91
2023-06-03T07:33:04.046Z,98102.91
2023-06-03T07:38:08.224Z,98104.59
2023-06-03T07:43:13.345Z,98026.16
2023-06-03T07:48:18.614Z,97867.47
2023-06-03T07:53:25.952Z,98104.25
2023-06-03T07:58:30.124Z,98069.34
2023-06-03T08:03:36.429Z,98057.53
2023-06-03T08:08:40.001Z,98109.06
2023-06-03T08:13:44.698Z,98110.41
2023-06-03T08:18:51.751Z,98122.91
2023-06-03T08:23:55.215Z,98107.25
2023-06-03T08:28:59.770Z,98114.78
2023-06-03T08:34:04.894Z,98052.72
2023-06-03T08:39:09.169Z,98124.94
2023-06-03T08:44:22.993Z,98073.44
2023-06-03T08:49:42.715Z,98060.97
2023-06-03T08:54:46.428Z,98072.25
2023-06-03T08:59:53.614Z,98075.41
2023-06-03T09:04:59.651Z,98087.53
2023-06-03T09:10:04.315Z,98104.56
2023-06-03T09:15:09.561Z,98090.38
2023-06-03T09:20:15.498Z,98104.16
2023-06-03T09:25:18.985Z,98102.50
2023-06-03T09:30:22.998Z,98109.66
2023-06-03T09:35:27.910Z,98115.66
2023-06-03T09:45:37.174Z,97901.41
2023-06-03T09:50:51.397Z,98054.41
2023-06-03T09:55:54.783Z,98093.41
2023-06-03T10:00:59.972Z,98088.16
2023-06-03T10:06:19.184Z,98090.16
2023-06-03T10:11:24.327Z,98087.63
2023-06-03T10:16:27.762Z,98038.84
2023-06-03T10:21:33.235Z,98080.34
2023-06-03T10:26:36.774Z,98078.78
2023-06-03T10:31:41.863Z,98044.22
2023-06-03T10:36:51.117Z,98029.53
2023-06-03T10:41:56.665Z,98053.78
2023-06-03T10:47:03.584Z,98063.34
2023-06-03T10:52:37.304Z,98055.94
2023-06-03T10:57:52.477Z,98048.22
2023-06-03T11:03:06.435Z,98043.00
2023-06-03T11:08:11.205Z,97954.81
2023-06-03T11:13:42.674Z,98051.28
2023-06-03T11:18:46.081Z,98039.88
2023-06-03T11:23:51.173Z,98036.41
2023-06-03T11:28:54.846Z,98055.19
2023-06-03T11:34:26.483Z,98031.41
2023-06-03T11:40:00.935Z,98028.00
2023-06-03T11:45:28.798Z,98023.28
2023-06-03T11:50:33.635Z,98011.69
2023-06-03T11:55:38.389Z,97990.47
2023-06-03T12:00:41.946Z,98004.78
2023-06-03T12:05:53.927Z,98012.81
2023-06-03T12:10:58.813Z,98004.28
2023-06-03T12:16:02.314Z,98005.13
2023-06-03T12:21:21.475Z,97922.34
2023-06-03T12:26:27.363Z,98022.06
2023-06-03T12:31:31.167Z,97999.75
2023-06-03T12:36:47.874Z,97984.69
2023-06-03T12:41:53.609Z,97962.56
2023-06-03T12:47:05.438Z,97963.44
2023-06-03T12:57:26.071Z,97984.97
2023-06-03T13:02:29.650Z,97994.41
2023-06-03T13:07:35.755Z,97961.81
2023-06-03T13:12:42.508Z,97952.00
2023-06-03T13:17:47.262Z,97954.25
2023-06-03T13:22:50.883Z,97979.53
2023-06-03T13:27:55.842Z,97945.22
2023-06-03T13:32:59.924Z,97942.28
2023-06-03T13:38:03.989Z,97891.56
2023-06-03T13:43:08.835Z,97919.84
2023-06-03T13:48:12.824Z,97965.03
2023-06-03T13:53:16.348Z,97960.50
2023-06-03T13:58:21.667Z,97962.53
2023-06-03T14:03:25.083Z,97875.97
2023-06-03T14:08:29.873Z,97947.97
2023-06-03T14:13:34.635Z,97945.84
2023-06-03T14:18:38.105Z,97933.78
2023-06-03T14:23:41.543Z,97929.22
2023-06-03T14:28:46.878Z,97953.63
2023-06-03T14:33:50.286Z,97931.84
2023-06-03T14:38:53.743Z,97936.53
2023-06-03T14:43:59.505Z,97733.94
2023-06-03T14:49:03.051Z,97833.25
2023-06-03T14:54:06.635Z,97899.94
2023-06-03T14:59:11.502Z,97884.03
2023-06-03T15:04:15.567Z,97769.41
2023-06-03T15:09:18.969Z,97907.25
2023-06-03T15:14:24.882Z,97872.28
2023-06-03T15:19:28.291Z,97885.97
2023-06-03T15:24:31.924Z,97871.13
2023-06-03T15:29:36.742Z,97901.88
2023-06-03T15:34:40.106Z,97899.06
2023-06-03T15:39:44.692Z,97898.91
2023-06-03T15:44:49.443Z,97899.13
2023-06-03T15:49:52.899Z,97904.00
2023-06-03T15:54:56.576Z,97890.03
2023-06-03T16:00:01.378Z,97910.00
2023-06-03T16:05:05.488Z,97810.34
2023-06-03T16:10:09.579Z,97892.16
2023-06-03T16:15:14.544Z,97899.13
2023-06-03T16:20:18.282Z,97868.19
2023-06-03T16:25:21.818Z,97869.16
2023-06-03T16:30:26.633Z,97895.31
2023-06-03T16:35:30.052Z,97893.19
2023-06-03T16:40:33.468Z,97898.38
2023-06-03T16:45:38.510Z,97897.88
2023-06-03T16:50:42.041Z,97900.75
2023-06-03T16:55:45.596Z,97760.34
2023-06-03T17:00:50.801Z,97911.06
2023-06-03T17:05:54.165Z,97916.72
2023-06-03T17:10:57.686Z,97908.03
2023-06-03T17:16:03.345Z,97917.50
2023-06-03T17:21:07.122Z,97890.88
2023-06-03T17:26:10.929Z,97839.00
2023-06-03T17:31:15.786Z,97930.47
2023-06-03T17:36:19.301Z,97931.34
2023-06-03T17:41:22.781Z,97891.44
2023-06-03T17:46:27.655Z,97921.31
2023-06-03T17:51:31.824Z,97906.75
2023-06-03T17:56:35.220Z,97873.41
2023-06-03T18:01:40.029Z,97937.22
2023-06-03T18:06:43.495Z,97945.81
2023-06-03T18:11:46.958Z,97948.28
2023-06-03T18:16:51.903Z,97946.66
2023-06-03T18:21:55.353Z,97942.81
2023-06-03T18:26:58.894Z,97961.13
2023-06-03T18:32:03.786Z,97749.09
2023-06-03T18:37:08.145Z,97927.13
2023-06-03T18:42:11.907Z,97932.81
2023-06-03T18:47:16.784Z,97964.66
2023-06-03T18:52:20.417Z,97957.34
2023-06-03T18:57:23.819Z,97970.56
2023-06-03T19:02:28.716Z,97952.47
2023-06-03T19:07:32.302Z,97978.28
2023-06-03T19:12:35.857Z,97985.34
2023-06-03T19:17:40.768Z,97991.47
2023-06-03T19:22:44.485Z,97994.13
2023-06-03T19:27:47.907Z,97983.91
2023-06-03T19:32:52.896Z,97936.38
2023-06-03T19:37:56.426Z,98010.13
2023-06-03T19:42:59.893Z,98020.09
2023-06-03T19:48:04.895Z,98034.44
2023-06-03T19:53:08.350Z,97905.81
2023-06-03T19:58:13.752Z,98035.16
2023-06-03T20:03:19.619Z,98038.53
2023-06-03T20:08:23.357Z,98030.91
2023-06-03T20:13:34.676Z,98035.34
2023-06-03T20:18:40.392Z,98022.91
2023-06-03T20:23:46.027Z,98038.75
2023-06-03T20:28:49.668Z,98048.38
2023-06-03T20:33:54.572Z,98054.72
2023-06-03T20:38:57.986Z,98053.41
2023-06-03T20:44:01.412Z,98054.28
2023-06-03T20:49:06.306Z,98059.22
2023-06-03T20:54:09.779Z,98027.59
2023-06-03T20:59:13.220Z,98067.75
2023-06-03T21:04:18.067Z,98065.03
2023-06-03T21:09:21.685Z,98039.13
2023-06-03T21:14:25.248Z,98058.22
2023-06-03T21:19:31.370Z,98033.09
2023-06-03T21:24:37.051Z,98065.38
2023-06-03T21:29:40.648Z,98062.09
2023-06-03T21:34:45.436Z,98064.25
2023-06-03T21:39:48.940Z,98055.81
2023-06-03T21:44:52.451Z,98069.19
2023-06-03T21:49:57.223Z,98019.44
2023-06-03T21:55:00.691Z,98067.00
2023-06-03T22:00:11.495Z,98074.91
2023-06-03T22:05:17.636Z,98081.47
2023-06-03T22:10:21.220Z,98085.47
2023-06-03T22:15:24.540Z,98073.94
2023-06-03T22:20:29.765Z,98131.19
2023-06-03T22:25:34.649Z,98073.22
2023-06-03T22:30:38.062Z,98045.44
2023-06-03T22:35:43.018Z,98054.19
2023-06-03T22:40:49.943Z,98081.00
2023-06-03T22:45:55.007Z,97980.72
2023-06-03T22:50:59.846Z,98071.38
2023-06-03T22:56:03.360Z,98071.88
2023-06-03T23:01:07.037Z,98069.59
2023-06-03T23:06:12.067Z,98071.81
2023-06-03T23:11:15.530Z,98052.25
2023-06-03T23:16:18.964Z,98071.97
2023-06-03T23:21:25.963Z,98070.25
2023-06-03T23:26:29.703Z,98075.34
2023-06-03T23:31:33.253Z,98079.03
2023-06-03T23:36:38.068Z,98071.63
2023-06-03T23:41:41.442Z,98000.00
2023-06-03T23:46:44.831Z,98020.66
2023-06-03T23:51:49.631Z,98064.53
2023-06-03T23:56:53.083Z,98053.31
